sensor_id;sensor_type;location;lat;lon;timestamp;temperature;humidity
356;DHT22;62514;48.112;11.566;2024-01-11T00:00:35;-4.50;36.60
356;DHT22;62514;48.112;11.566;2024-01-11T00:03:01;-4.50;36.60
356;DHT22;62514;48.112;11.566;2024-01-11T00:05:27;-4.50;36.50
356;DHT22;62514;48.112;11.566;2024-01-11T00:07:53;-4.50;36.30
356;DHT22;62514;48.112;11.566;2024-01-11T00:10:19;-4.50;36.40
356;DHT22;62514;48.112;11.566;2024-01-11T00:12:46;-4.50;36.40
356;DHT22;62514;48.112;11.566;2024-01-11T00:15:13;-4.60;36.40
356;DHT22;62514;48.112;11.566;2024-01-11T00:17:39;-4.60;36.40
356;DHT22;62514;48.112;11.566;2024-01-11T00:20:06;-4.60;36.90
356;DHT22;62514;48.112;11.566;2024-01-11T00:22:32;-4.60;37.30
356;DHT22;62514;48.112;11.566;2024-01-11T00:24:58;-4.50;37.40
356;DHT22;62514;48.112;11.566;2024-01-11T00:27:24;-4.40;37.40
356;DHT22;62514;48.112;11.566;2024-01-11T00:29:49;-4.40;37.40
356;DHT22;62514;48.112;11.566;2024-01-11T00:32:15;-4.30;37.50
356;DHT22;62514;48.112;11.566;2024-01-11T00:34:41;-4.30;37.40
356;DHT22;62514;48.112;11.566;2024-01-11T00:37:07;-4.40;36.90
356;DHT22;62514;48.112;11.566;2024-01-11T00:39:33;-4.50;36.20
356;DHT22;62514;48.112;11.566;2024-01-11T00:41:59;-4.50;37.40
356;DHT22;62514;48.112;11.566;2024-01-11T00:44:25;-4.60;36.70
356;DHT22;62514;48.112;11.566;2024-01-11T00:46:51;-4.70;37.40
356;DHT22;62514;48.112;11.566;2024-01-11T00:49:17;-4.70;38.20
356;DHT22;62514;48.112;11.566;2024-01-11T00:51:43;-4.90;38.40
356;DHT22;62514;48.112;11.566;2024-01-11T00:54:09;-4.80;39.70
356;DHT22;62514;48.112;11.566;2024-01-11T00:56:35;-4.80;39.80
356;DHT22;62514;48.112;11.566;2024-01-11T00:59:01;-4.80;40.60
356;DHT22;62514;48.112;11.566;2024-01-11T01:01:27;-4.80;40.70
356;DHT22;62514;48.112;11.566;2024-01-11T01:03:53;-4.70;40.90
356;DHT22;62514;48.112;11.566;2024-01-11T01:06:20;-4.60;40.50
356;DHT22;62514;48.112;11.566;2024-01-11T01:08:46;-4.60;40.10
356;DHT22;62514;48.112;11.566;2024-01-11T01:11:12;-4.60;39.90
356;DHT22;62514;48.112;11.566;2024-01-11T01:13:38;-4.50;39.60
356;DHT22;62514;48.112;11.566;2024-01-11T01:16:04;-4.60;38.90
356;DHT22;62514;48.112;11.566;2024-01-11T01:18:30;-4.60;38.80
356;DHT22;62514;48.112;11.566;2024-01-11T01:20:56;-4.50;38.80
356;DHT22;62514;48.112;11.566;2024-01-11T01:23:22;-4.50;38.60
356;DHT22;62514;48.112;11.566;2024-01-11T01:25:48;-4.50;38.20
356;DHT22;62514;48.112;11.566;2024-01-11T01:28:14;-4.50;38.10
356;DHT22;62514;48.112;11.566;2024-01-11T01:30:40;-4.50;38.00
356;DHT22;62514;48.112;11.566;2024-01-11T01:33:06;-4.50;37.50
356;DHT22;62514;48.112;11.566;2024-01-11T01:35:32;-4.60;37.30
356;DHT22;62514;48.112;11.566;2024-01-11T01:38:00;-4.60;37.30
356;DHT22;62514;48.112;11.566;2024-01-11T01:40:26;-4.50;37.40
356;DHT22;62514;48.112;11.566;2024-01-11T01:42:58;-4.50;37.40
356;DHT22;62514;48.112;11.566;2024-01-11T01:45:25;-4.50;37.40
356;DHT22;62514;48.112;11.566;2024-01-11T01:47:51;-4.50;37.40
356;DHT22;62514;48.112;11.566;2024-01-11T01:50:17;-4.60;36.90
356;DHT22;62514;48.112;11.566;2024-01-11T01:52:45;-4.60;37.30
356;DHT22;62514;48.112;11.566;2024-01-11T01:55:12;-4.60;37.30
356;DHT22;62514;48.112;11.566;2024-01-11T01:57:41;-4.70;37.30
356;DHT22;62514;48.112;11.566;2024-01-11T02:00:09;-4.70;37.70
356;DHT22;62514;48.112;11.566;2024-01-11T02:02:37;-4.80;38.10
356;DHT22;62514;48.112;11.566;2024-01-11T02:05:04;-4.80;38.20
356;DHT22;62514;48.112;11.566;2024-01-11T02:07:31;-4.80;38.90
356;DHT22;62514;48.112;11.566;2024-01-11T02:09:57;-5.00;38.10
356;DHT22;62514;48.112;11.566;2024-01-11T02:12:25;-5.10;38.40
356;DHT22;62514;48.112;11.566;2024-01-11T02:14:53;-5.10;39.30
356;DHT22;62514;48.112;11.566;2024-01-11T02:17:20;-5.10;39.60
356;DHT22;62514;48.112;11.566;2024-01-11T02:19:46;-5.00;40.20
356;DHT22;62514;48.112;11.566;2024-01-11T02:22:18;-5.00;40.30
356;DHT22;62514;48.112;11.566;2024-01-11T02:24:46;-5.00;40.40
356;DHT22;62514;48.112;11.566;2024-01-11T02:27:12;-5.00;40.00
356;DHT22;62514;48.112;11.566;2024-01-11T02:29:38;-5.00;39.80
356;DHT22;62514;48.112;11.566;2024-01-11T02:32:04;-5.20;38.80
356;DHT22;62514;48.112;11.566;2024-01-11T02:34:33;-5.10;39.90
356;DHT22;62514;48.112;11.566;2024-01-11T02:36:59;-5.20;39.70
356;DHT22;62514;48.112;11.566;2024-01-11T02:39:26;-5.10;40.10
356;DHT22;62514;48.112;11.566;2024-01-11T02:41:55;-5.10;39.90
356;DHT22;62514;48.112;11.566;2024-01-11T02:44:21;-5.10;39.80
356;DHT22;62514;48.112;11.566;2024-01-11T02:46:47;-5.00;40.10
356;DHT22;62514;48.112;11.566;2024-01-11T02:49:13;-5.00;40.00
356;DHT22;62514;48.112;11.566;2024-01-11T02:51:39;-4.90;39.70
356;DHT22;62514;48.112;11.566;2024-01-11T02:54:05;-5.00;38.90
356;DHT22;62514;48.112;11.566;2024-01-11T02:56:31;-5.00;39.10
356;DHT22;62514;48.112;11.566;2024-01-11T02:58:57;-5.00;39.00
356;DHT22;62514;48.112;11.566;2024-01-11T03:01:23;-4.90;39.00
356;DHT22;62514;48.112;11.566;2024-01-11T03:03:49;-4.90;39.00
356;DHT22;62514;48.112;11.566;2024-01-11T03:06:15;-4.80;38.90
356;DHT22;62514;48.112;11.566;2024-01-11T03:08:48;-4.80;38.40
356;DHT22;62514;48.112;11.566;2024-01-11T03:11:14;-4.80;38.10
356;DHT22;62514;48.112;11.566;2024-01-11T03:13:40;-4.80;37.20
356;DHT22;62514;48.112;11.566;2024-01-11T03:16:06;-4.90;37.20
356;DHT22;62514;48.112;11.566;2024-01-11T03:18:32;-5.00;37.20
356;DHT22;62514;48.112;11.566;2024-01-11T03:20:58;-5.10;37.40
356;DHT22;62514;48.112;11.566;2024-01-11T03:23:24;-5.20;38.00
356;DHT22;62514;48.112;11.566;2024-01-11T03:25:50;-5.20;39.30
356;DHT22;62514;48.112;11.566;2024-01-11T03:28:16;-5.10;40.00
356;DHT22;62514;48.112;11.566;2024-01-11T03:30:42;-5.00;40.10
356;DHT22;62514;48.112;11.566;2024-01-11T03:33:08;-5.00;39.40
356;DHT22;62514;48.112;11.566;2024-01-11T03:35:34;-5.10;39.70
356;DHT22;62514;48.112;11.566;2024-01-11T03:38:00;-5.20;39.00
356;DHT22;62514;48.112;11.566;2024-01-11T03:40:26;-5.20;40.00
356;DHT22;62514;48.112;11.566;2024-01-11T03:42:52;-5.20;41.40
356;DHT22;62514;48.112;11.566;2024-01-11T03:45:18;-5.10;40.90
356;DHT22;62514;48.112;11.566;2024-01-11T03:47:47;-5.00;40.80
356;DHT22;62514;48.112;11.566;2024-01-11T03:50:13;-4.90;40.30
356;DHT22;62514;48.112;11.566;2024-01-11T03:52:39;-4.90;39.50
356;DHT22;62514;48.112;11.566;2024-01-11T03:55:06;-4.80;39.30
356;DHT22;62514;48.112;11.566;2024-01-11T03:57:32;-4.90;38.20
356;DHT22;62514;48.112;11.566;2024-01-11T03:59:58;-4.90;37.80
356;DHT22;62514;48.112;11.566;2024-01-11T04:02:25;-4.90;37.90
356;DHT22;62514;48.112;11.566;2024-01-11T04:04:51;-4.90;37.90
356;DHT22;62514;48.112;11.566;2024-01-11T04:07:17;-4.90;38.10
356;DHT22;62514;48.112;11.566;2024-01-11T04:09:43;-4.90;38.30
356;DHT22;62514;48.112;11.566;2024-01-11T04:12:08;-4.90;37.90
356;DHT22;62514;48.112;11.566;2024-01-11T04:14:39;-4.80;38.30
356;DHT22;62514;48.112;11.566;2024-01-11T04:17:06;-4.80;37.90
356;DHT22;62514;48.112;11.566;2024-01-11T04:19:31;-4.80;37.20
356;DHT22;62514;48.112;11.566;2024-01-11T04:21:58;-4.90;37.20
356;DHT22;62514;48.112;11.566;2024-01-11T04:24:24;-5.10;36.10
356;DHT22;62514;48.112;11.566;2024-01-11T04:26:50;-5.20;37.10
356;DHT22;62514;48.112;11.566;2024-01-11T04:29:16;-5.40;37.30
356;DHT22;62514;48.112;11.566;2024-01-11T04:31:42;-5.50;38.70
356;DHT22;62514;48.112;11.566;2024-01-11T04:34:08;-5.60;39.80
356;DHT22;62514;48.112;11.566;2024-01-11T04:36:37;-5.70;40.80
356;DHT22;62514;48.112;11.566;2024-01-11T04:39:04;-5.70;42.00
356;DHT22;62514;48.112;11.566;2024-01-11T04:41:30;-5.70;42.60
356;DHT22;62514;48.112;11.566;2024-01-11T04:43:56;-5.70;43.10
356;DHT22;62514;48.112;11.566;2024-01-11T04:46:23;-5.60;44.10
356;DHT22;62514;48.112;11.566;2024-01-11T04:48:49;-5.50;44.60
356;DHT22;62514;48.112;11.566;2024-01-11T04:51:16;-5.40;44.80
356;DHT22;62514;48.112;11.566;2024-01-11T04:53:44;-5.30;44.50
356;DHT22;62514;48.112;11.566;2024-01-11T04:56:12;-5.30;43.50
356;DHT22;62514;48.112;11.566;2024-01-11T04:58:43;-5.20;43.90
356;DHT22;62514;48.112;11.566;2024-01-11T05:01:17;-5.20;43.80
356;DHT22;62514;48.112;11.566;2024-01-11T05:03:44;-5.00;43.80
356;DHT22;62514;48.112;11.566;2024-01-11T05:06:21;-4.90;43.70
356;DHT22;62514;48.112;11.566;2024-01-11T05:08:49;-4.80;43.00
356;DHT22;62514;48.112;11.566;2024-01-11T05:11:19;-4.80;42.70
356;DHT22;62514;48.112;11.566;2024-01-11T05:13:46;-4.70;41.90
356;DHT22;62514;48.112;11.566;2024-01-11T05:16:24;-4.70;41.60
356;DHT22;62514;48.112;11.566;2024-01-11T05:18:52;-4.70;41.10
356;DHT22;62514;48.112;11.566;2024-01-11T05:21:18;-4.70;40.50
356;DHT22;62514;48.112;11.566;2024-01-11T05:23:45;-4.70;39.60
356;DHT22;62514;48.112;11.566;2024-01-11T05:26:12;-4.70;39.90
356;DHT22;62514;48.112;11.566;2024-01-11T05:28:38;-4.60;40.00
356;DHT22;62514;48.112;11.566;2024-01-11T05:31:09;-4.40;40.00
356;DHT22;62514;48.112;11.566;2024-01-11T05:33:36;-4.50;39.60
356;DHT22;62514;48.112;11.566;2024-01-11T05:36:02;-4.50;39.10
356;DHT22;62514;48.112;11.566;2024-01-11T05:38:28;-4.80;37.20
356;DHT22;62514;48.112;11.566;2024-01-11T05:40:55;-5.10;38.20
356;DHT22;62514;48.112;11.566;2024-01-11T05:43:22;-5.10;39.80
356;DHT22;62514;48.112;11.566;2024-01-11T05:45:49;-5.20;41.20
356;DHT22;62514;48.112;11.566;2024-01-11T05:48:16;-5.20;42.20
356;DHT22;62514;48.112;11.566;2024-01-11T05:50:42;-5.30;41.90
356;DHT22;62514;48.112;11.566;2024-01-11T05:53:09;-5.30;42.80
356;DHT22;62514;48.112;11.566;2024-01-11T05:55:35;-5.20;42.80
356;DHT22;62514;48.112;11.566;2024-01-11T05:58:00;-5.20;42.80
356;DHT22;62514;48.112;11.566;2024-01-11T06:00:27;-5.30;42.40
356;DHT22;62514;48.112;11.566;2024-01-11T06:02:52;-5.30;42.80
356;DHT22;62514;48.112;11.566;2024-01-11T06:05:19;-5.40;42.70
356;DHT22;62514;48.112;11.566;2024-01-11T06:07:45;-5.30;43.40
356;DHT22;62514;48.112;11.566;2024-01-11T06:10:11;-5.40;42.70
356;DHT22;62514;48.112;11.566;2024-01-11T06:12:36;-5.40;42.90
356;DHT22;62514;48.112;11.566;2024-01-11T06:15:03;-5.30;43.60
356;DHT22;62514;48.112;11.566;2024-01-11T06:17:29;-5.20;43.90
356;DHT22;62514;48.112;11.566;2024-01-11T06:19:55;-5.20;43.00
356;DHT22;62514;48.112;11.566;2024-01-11T06:22:21;-5.20;42.80
356;DHT22;62514;48.112;11.566;2024-01-11T06:24:47;-5.30;42.30
356;DHT22;62514;48.112;11.566;2024-01-11T06:27:13;-5.50;42.00
356;DHT22;62514;48.112;11.566;2024-01-11T06:29:39;-5.60;42.60
356;DHT22;62514;48.112;11.566;2024-01-11T06:32:07;-5.60;42.60
356;DHT22;62514;48.112;11.566;2024-01-11T06:34:34;-5.50;43.60
356;DHT22;62514;48.112;11.566;2024-01-11T06:37:01;-5.60;42.60
356;DHT22;62514;48.112;11.566;2024-01-11T06:39:29;-5.70;43.30
356;DHT22;62514;48.112;11.566;2024-01-11T06:41:55;-5.70;43.30
356;DHT22;62514;48.112;11.566;2024-01-11T06:44:21;-5.70;43.80
356;DHT22;62514;48.112;11.566;2024-01-11T06:46:47;-5.70;44.10
356;DHT22;62514;48.112;11.566;2024-01-11T06:49:13;-5.60;44.60
356;DHT22;62514;48.112;11.566;2024-01-11T06:51:39;-5.50;44.80
356;DHT22;62514;48.112;11.566;2024-01-11T06:54:07;-5.40;44.40
356;DHT22;62514;48.112;11.566;2024-01-11T06:56:33;-5.30;45.40
356;DHT22;62514;48.112;11.566;2024-01-11T06:58:59;-5.20;43.70
356;DHT22;62514;48.112;11.566;2024-01-11T07:01:24;-5.20;43.50
356;DHT22;62514;48.112;11.566;2024-01-11T07:03:51;-5.40;42.10
356;DHT22;62514;48.112;11.566;2024-01-11T07:06:17;-5.30;42.50
356;DHT22;62514;48.112;11.566;2024-01-11T07:08:43;-5.30;42.20
356;DHT22;62514;48.112;11.566;2024-01-11T07:11:10;-5.20;41.60
356;DHT22;62514;48.112;11.566;2024-01-11T07:13:36;-5.20;40.70
356;DHT22;62514;48.112;11.566;2024-01-11T07:16:03;-5.20;40.20
356;DHT22;62514;48.112;11.566;2024-01-11T07:18:29;-5.20;40.50
356;DHT22;62514;48.112;11.566;2024-01-11T07:20:59;-5.20;40.10
356;DHT22;62514;48.112;11.566;2024-01-11T07:23:26;-5.20;39.50
356;DHT22;62514;48.112;11.566;2024-01-11T07:25:52;-5.20;39.00
356;DHT22;62514;48.112;11.566;2024-01-11T07:28:18;-5.10;39.40
356;DHT22;62514;48.112;11.566;2024-01-11T07:30:45;-5.10;39.30
356;DHT22;62514;48.112;11.566;2024-01-11T07:33:12;-5.10;39.00
356;DHT22;62514;48.112;11.566;2024-01-11T07:35:38;-5.10;38.70
356;DHT22;62514;48.112;11.566;2024-01-11T07:38:04;-5.00;39.20
356;DHT22;62514;48.112;11.566;2024-01-11T07:40:30;-5.00;38.40
356;DHT22;62514;48.112;11.566;2024-01-11T07:42:57;-5.00;38.50
356;DHT22;62514;48.112;11.566;2024-01-11T07:45:23;-5.00;38.30
356;DHT22;62514;48.112;11.566;2024-01-11T07:47:49;-5.00;37.80
356;DHT22;62514;48.112;11.566;2024-01-11T07:50:15;-5.00;38.20
356;DHT22;62514;48.112;11.566;2024-01-11T07:52:41;-4.90;38.10
356;DHT22;62514;48.112;11.566;2024-01-11T07:55:08;-5.20;37.10
356;DHT22;62514;48.112;11.566;2024-01-11T07:57:35;-5.20;37.70
356;DHT22;62514;48.112;11.566;2024-01-11T08:00:02;-5.10;38.80
356;DHT22;62514;48.112;11.566;2024-01-11T08:02:29;-5.00;39.50
356;DHT22;62514;48.112;11.566;2024-01-11T08:04:55;-4.90;38.70
356;DHT22;62514;48.112;11.566;2024-01-11T08:07:21;-4.90;38.60
356;DHT22;62514;48.112;11.566;2024-01-11T08:09:47;-4.80;38.40
356;DHT22;62514;48.112;11.566;2024-01-11T08:12:17;-4.80;37.60
356;DHT22;62514;48.112;11.566;2024-01-11T08:14:43;-4.70;37.30
356;DHT22;62514;48.112;11.566;2024-01-11T08:17:09;-4.70;37.40
356;DHT22;62514;48.112;11.566;2024-01-11T08:19:35;-4.60;36.90
356;DHT22;62514;48.112;11.566;2024-01-11T08:22:01;-4.60;36.40
356;DHT22;62514;48.112;11.566;2024-01-11T08:24:28;-4.60;36.10
356;DHT22;62514;48.112;11.566;2024-01-11T08:26:54;-4.60;34.90
356;DHT22;62514;48.112;11.566;2024-01-11T08:29:20;-4.70;34.70
356;DHT22;62514;48.112;11.566;2024-01-11T08:31:46;-4.70;34.90
356;DHT22;62514;48.112;11.566;2024-01-11T08:34:12;-4.60;35.10
356;DHT22;62514;48.112;11.566;2024-01-11T08:36:38;-4.50;35.50
356;DHT22;62514;48.112;11.566;2024-01-11T08:39:05;-4.60;34.30
356;DHT22;62514;48.112;11.566;2024-01-11T08:41:32;-4.50;34.80
356;DHT22;62514;48.112;11.566;2024-01-11T08:43:58;-4.50;34.80
356;DHT22;62514;48.112;11.566;2024-01-11T08:46:25;-4.50;34.10
356;DHT22;62514;48.112;11.566;2024-01-11T08:48:52;-4.50;33.80
356;DHT22;62514;48.112;11.566;2024-01-11T08:51:18;-4.40;34.60
356;DHT22;62514;48.112;11.566;2024-01-11T08:53:44;-4.40;34.70
356;DHT22;62514;48.112;11.566;2024-01-11T08:56:10;-4.40;33.20
356;DHT22;62514;48.112;11.566;2024-01-11T08:58:36;-4.50;34.00
356;DHT22;62514;48.112;11.566;2024-01-11T09:01:02;-4.60;33.50
356;DHT22;62514;48.112;11.566;2024-01-11T09:03:28;-4.70;33.80
356;DHT22;62514;48.112;11.566;2024-01-11T09:05:54;-4.80;34.80
356;DHT22;62514;48.112;11.566;2024-01-11T09:08:23;-5.00;35.70
356;DHT22;62514;48.112;11.566;2024-01-11T09:10:49;-5.10;37.10
356;DHT22;62514;48.112;11.566;2024-01-11T09:13:15;-5.00;38.30
356;DHT22;62514;48.112;11.566;2024-01-11T09:15:43;-4.80;38.80
356;DHT22;62514;48.112;11.566;2024-01-11T09:18:09;-4.80;38.20
356;DHT22;62514;48.112;11.566;2024-01-11T09:20:36;-4.70;38.50
356;DHT22;62514;48.112;11.566;2024-01-11T09:23:02;-4.60;38.60
356;DHT22;62514;48.112;11.566;2024-01-11T09:25:32;-4.70;36.90
356;DHT22;62514;48.112;11.566;2024-01-11T09:27:58;-4.60;37.30
356;DHT22;62514;48.112;11.566;2024-01-11T09:30:25;-4.60;35.90
356;DHT22;62514;48.112;11.566;2024-01-11T09:32:51;-4.60;35.90
356;DHT22;62514;48.112;11.566;2024-01-11T09:35:18;-4.60;36.20
356;DHT22;62514;48.112;11.566;2024-01-11T09:37:43;-4.60;34.60
356;DHT22;62514;48.112;11.566;2024-01-11T09:40:12;-4.70;35.00
356;DHT22;62514;48.112;11.566;2024-01-11T09:42:38;-4.80;33.90
356;DHT22;62514;48.112;11.566;2024-01-11T09:45:09;-4.90;34.40
356;DHT22;62514;48.112;11.566;2024-01-11T09:47:38;-4.80;35.70
356;DHT22;62514;48.112;11.566;2024-01-11T09:50:06;-4.60;36.60
356;DHT22;62514;48.112;11.566;2024-01-11T09:52:32;-4.50;35.80
356;DHT22;62514;48.112;11.566;2024-01-11T09:55:01;-4.60;34.10
356;DHT22;62514;48.112;11.566;2024-01-11T09:57:32;-4.60;34.10
356;DHT22;62514;48.112;11.566;2024-01-11T10:00:04;-4.60;33.80
356;DHT22;62514;48.112;11.566;2024-01-11T10:02:33;-4.60;33.80
356;DHT22;62514;48.112;11.566;2024-01-11T10:04:59;-4.70;32.50
356;DHT22;62514;48.112;11.566;2024-01-11T10:07:25;-4.80;33.30
356;DHT22;62514;48.112;11.566;2024-01-11T10:09:51;-4.80;34.60
356;DHT22;62514;48.112;11.566;2024-01-11T10:12:18;-4.70;35.40
356;DHT22;62514;48.112;11.566;2024-01-11T10:14:46;-4.50;35.60
356;DHT22;62514;48.112;11.566;2024-01-11T10:17:13;-4.50;34.30
356;DHT22;62514;48.112;11.566;2024-01-11T10:19:39;-4.30;34.00
356;DHT22;62514;48.112;11.566;2024-01-11T10:22:05;-4.30;32.90
356;DHT22;62514;48.112;11.566;2024-01-11T10:24:31;-4.40;32.00
356;DHT22;62514;48.112;11.566;2024-01-11T10:27:00;-4.40;32.80
356;DHT22;62514;48.112;11.566;2024-01-11T10:29:33;-4.20;33.40
356;DHT22;62514;48.112;11.566;2024-01-11T10:31:59;-4.20;32.10
356;DHT22;62514;48.112;11.566;2024-01-11T10:34:25;-4.30;32.10
356;DHT22;62514;48.112;11.566;2024-01-11T10:36:51;-4.50;32.80
356;DHT22;62514;48.112;11.566;2024-01-11T10:39:17;-4.50;33.90
356;DHT22;62514;48.112;11.566;2024-01-11T10:41:51;-4.40;34.20
356;DHT22;62514;48.112;11.566;2024-01-11T10:44:20;-4.30;34.80
356;DHT22;62514;48.112;11.566;2024-01-11T10:46:49;-4.30;34.20
356;DHT22;62514;48.112;11.566;2024-01-11T10:49:19;-4.20;33.60
356;DHT22;62514;48.112;11.566;2024-01-11T10:51:52;-4.40;33.50
356;DHT22;62514;48.112;11.566;2024-01-11T10:54:20;-4.50;34.00
356;DHT22;62514;48.112;11.566;2024-01-11T10:56:48;-4.60;35.40
356;DHT22;62514;48.112;11.566;2024-01-11T10:59:17;-4.40;37.10
356;DHT22;62514;48.112;11.566;2024-01-11T11:01:44;-4.10;37.50
356;DHT22;62514;48.112;11.566;2024-01-11T11:04:15;-3.90;36.40
356;DHT22;62514;48.112;11.566;2024-01-11T11:06:43;-3.90;35.20
356;DHT22;62514;48.112;11.566;2024-01-11T11:09:09;-4.20;33.00
356;DHT22;62514;48.112;11.566;2024-01-11T11:11:36;-4.40;33.60
356;DHT22;62514;48.112;11.566;2024-01-11T11:14:05;-4.60;34.80
356;DHT22;62514;48.112;11.566;2024-01-11T11:16:31;-4.40;36.50
356;DHT22;62514;48.112;11.566;2024-01-11T11:18:57;-4.20;37.10
356;DHT22;62514;48.112;11.566;2024-01-11T11:21:23;-4.20;34.30
356;DHT22;62514;48.112;11.566;2024-01-11T11:23:50;-4.10;34.90
356;DHT22;62514;48.112;11.566;2024-01-11T11:26:17;-3.90;34.50
356;DHT22;62514;48.112;11.566;2024-01-11T11:28:43;-3.80;33.50
356;DHT22;62514;48.112;11.566;2024-01-11T11:31:12;-4.10;31.70
356;DHT22;62514;48.112;11.566;2024-01-11T11:33:38;-4.20;33.30
356;DHT22;62514;48.112;11.566;2024-01-11T11:36:12;-4.00;34.30
356;DHT22;62514;48.112;11.566;2024-01-11T11:38:38;-4.20;32.20
356;DHT22;62514;48.112;11.566;2024-01-11T11:41:04;-4.40;34.30
356;DHT22;62514;48.112;11.566;2024-01-11T11:43:31;-4.30;36.30
356;DHT22;62514;48.112;11.566;2024-01-11T11:45:57;-4.00;37.20
356;DHT22;62514;48.112;11.566;2024-01-11T11:51:09;-3.60;36.40
356;DHT22;62514;48.112;11.566;2024-01-11T11:53:37;-3.30;35.30
356;DHT22;62514;48.112;11.566;2024-01-11T11:56:03;-3.30;32.60
356;DHT22;62514;48.112;11.566;2024-01-11T11:58:31;-3.60;30.30
356;DHT22;62514;48.112;11.566;2024-01-11T12:01:02;-3.60;32.40
356;DHT22;62514;48.112;11.566;2024-01-11T12:03:33;-3.50;32.40
356;DHT22;62514;48.112;11.566;2024-01-11T12:06:04;-3.30;32.50
356;DHT22;62514;48.112;11.566;2024-01-11T12:08:31;-3.40;29.70
356;DHT22;62514;48.112;11.566;2024-01-11T12:10:57;-3.50;30.60
356;DHT22;62514;48.112;11.566;2024-01-11T12:13:24;-3.40;31.60
356;DHT22;62514;48.112;11.566;2024-01-11T12:15:51;-3.20;32.60
356;DHT22;62514;48.112;11.566;2024-01-11T12:18:17;-3.40;29.10
356;DHT22;62514;48.112;11.566;2024-01-11T12:20:44;-3.40;30.60
356;DHT22;62514;48.112;11.566;2024-01-11T12:23:10;-3.50;31.40
356;DHT22;62514;48.112;11.566;2024-01-11T12:25:36;-3.30;32.60
356;DHT22;62514;48.112;11.566;2024-01-11T12:28:02;-3.20;31.90
356;DHT22;62514;48.112;11.566;2024-01-11T12:30:28;-3.00;30.70
356;DHT22;62514;48.112;11.566;2024-01-11T12:32:57;-2.90;28.90
356;DHT22;62514;48.112;11.566;2024-01-11T12:35:23;-2.80;28.70
356;DHT22;62514;48.112;11.566;2024-01-11T12:40:20;-2.60;27.40
356;DHT22;62514;48.112;11.566;2024-01-11T12:42:46;-2.40;27.40
356;DHT22;62514;48.112;11.566;2024-01-11T12:45:12;-2.40;25.70
356;DHT22;62514;48.112;11.566;2024-01-11T12:47:38;-2.40;25.60
356;DHT22;62514;48.112;11.566;2024-01-11T12:50:05;-2.30;26.20
356;DHT22;62514;48.112;11.566;2024-01-11T12:52:33;-2.40;25.30
356;DHT22;62514;48.112;11.566;2024-01-11T12:54:59;-2.50;25.40
356;DHT22;62514;48.112;11.566;2024-01-11T12:57:25;-2.70;26.10
356;DHT22;62514;48.112;11.566;2024-01-11T12:59:52;-2.90;27.90
356;DHT22;62514;48.112;11.566;2024-01-11T13:02:19;-3.00;29.20
356;DHT22;62514;48.112;11.566;2024-01-11T13:04:45;-2.90;30.30
356;DHT22;62514;48.112;11.566;2024-01-11T13:07:12;-2.70;29.50
356;DHT22;62514;48.112;11.566;2024-01-11T13:09:38;-2.60;29.00
356;DHT22;62514;48.112;11.566;2024-01-11T13:12:05;-2.40;28.90
356;DHT22;62514;48.112;11.566;2024-01-11T13:14:31;-2.30;28.00
356;DHT22;62514;48.112;11.566;2024-01-11T13:16:57;-2.40;26.60
356;DHT22;62514;48.112;11.566;2024-01-11T13:19:23;-2.70;26.70
356;DHT22;62514;48.112;11.566;2024-01-11T13:21:49;-2.70;27.30
356;DHT22;62514;48.112;11.566;2024-01-11T13:24:15;-2.80;28.10
356;DHT22;62514;48.112;11.566;2024-01-11T13:26:41;-2.70;28.80
356;DHT22;62514;48.112;11.566;2024-01-11T13:29:07;-2.50;28.30
356;DHT22;62514;48.112;11.566;2024-01-11T13:31:33;-2.40;27.40
356;DHT22;62514;48.112;11.566;2024-01-11T13:33:59;-2.40;27.40
356;DHT22;62514;48.112;11.566;2024-01-11T13:36:25;-2.40;27.10
356;DHT22;62514;48.112;11.566;2024-01-11T13:38:51;-2.40;27.40
356;DHT22;62514;48.112;11.566;2024-01-11T13:41:18;-2.30;27.50
356;DHT22;62514;48.112;11.566;2024-01-11T13:43:44;-2.30;26.60
356;DHT22;62514;48.112;11.566;2024-01-11T13:46:11;-2.30;26.90
356;DHT22;62514;48.112;11.566;2024-01-11T13:48:38;-2.20;27.00
356;DHT22;62514;48.112;11.566;2024-01-11T13:51:04;-2.20;26.70
356;DHT22;62514;48.112;11.566;2024-01-11T13:53:30;-2.40;26.60
356;DHT22;62514;48.112;11.566;2024-01-11T13:55:56;-2.50;26.80
356;DHT22;62514;48.112;11.566;2024-01-11T13:58:22;-2.70;28.50
356;DHT22;62514;48.112;11.566;2024-01-11T14:00:48;-3.10;29.30
356;DHT22;62514;48.112;11.566;2024-01-11T14:03:15;-3.10;31.00
356;DHT22;62514;48.112;11.566;2024-01-11T14:05:41;-3.30;32.50
356;DHT22;62514;48.112;11.566;2024-01-11T14:08:07;-3.20;32.60
356;DHT22;62514;48.112;11.566;2024-01-11T14:10:34;-3.10;32.60
356;DHT22;62514;48.112;11.566;2024-01-11T14:13:01;-2.90;33.20
356;DHT22;62514;48.112;11.566;2024-01-11T14:15:27;-2.80;32.70
356;DHT22;62514;48.112;11.566;2024-01-11T14:17:53;-2.60;32.80
356;DHT22;62514;48.112;11.566;2024-01-11T14:20:20;-2.60;30.90
356;DHT22;62514;48.112;11.566;2024-01-11T14:22:47;-2.60;29.80
356;DHT22;62514;48.112;11.566;2024-01-11T14:25:16;-3.00;30.00
356;DHT22;62514;48.112;11.566;2024-01-11T14:27:42;-3.10;30.80
356;DHT22;62514;48.112;11.566;2024-01-11T14:30:11;-2.90;31.90
356;DHT22;62514;48.112;11.566;2024-01-11T14:32:37;-2.80;31.10
356;DHT22;62514;48.112;11.566;2024-01-11T14:35:07;-3.10;30.20
356;DHT22;62514;48.112;11.566;2024-01-11T14:37:35;-3.20;31.40
356;DHT22;62514;48.112;11.566;2024-01-11T14:40:01;-3.30;31.70
356;DHT22;62514;48.112;11.566;2024-01-11T14:42:28;-3.40;32.40
356;DHT22;62514;48.112;11.566;2024-01-11T14:44:55;-3.40;32.40
356;DHT22;62514;48.112;11.566;2024-01-11T14:47:23;-3.40;32.80
356;DHT22;62514;48.112;11.566;2024-01-11T14:49:49;-3.20;33.50
356;DHT22;62514;48.112;11.566;2024-01-11T14:52:15;-3.20;32.50
356;DHT22;62514;48.112;11.566;2024-01-11T14:54:41;-3.10;32.60
356;DHT22;62514;48.112;11.566;2024-01-11T14:57:06;-3.00;32.40
356;DHT22;62514;48.112;11.566;2024-01-11T14:59:32;-3.00;32.00
356;DHT22;62514;48.112;11.566;2024-01-11T15:02:02;-2.90;31.60
356;DHT22;62514;48.112;11.566;2024-01-11T15:04:28;-2.80;31.00
356;DHT22;62514;48.112;11.566;2024-01-11T15:06:54;-2.80;29.80
356;DHT22;62514;48.112;11.566;2024-01-11T15:09:20;-2.70;30.20
356;DHT22;62514;48.112;11.566;2024-01-11T15:11:46;-2.80;29.90
356;DHT22;62514;48.112;11.566;2024-01-11T15:14:12;-2.80;29.30
356;DHT22;62514;48.112;11.566;2024-01-11T15:16:39;-2.90;29.30
356;DHT22;62514;48.112;11.566;2024-01-11T15:19:06;-3.00;30.10
356;DHT22;62514;48.112;11.566;2024-01-11T15:21:32;-3.00;30.10
356;DHT22;62514;48.112;11.566;2024-01-11T15:23:58;-2.90;30.90
356;DHT22;62514;48.112;11.566;2024-01-11T15:26:25;-3.00;29.70
356;DHT22;62514;48.112;11.566;2024-01-11T15:28:53;-3.00;30.60
356;DHT22;62514;48.112;11.566;2024-01-11T15:31:19;-2.90;30.60
356;DHT22;62514;48.112;11.566;2024-01-11T15:33:45;-2.80;30.50
356;DHT22;62514;48.112;11.566;2024-01-11T15:36:11;-3.00;29.00
356;DHT22;62514;48.112;11.566;2024-01-11T15:38:38;-3.30;30.30
356;DHT22;62514;48.112;11.566;2024-01-11T15:41:04;-3.50;32.40
356;DHT22;62514;48.112;11.566;2024-01-11T15:43:31;-3.50;32.80
356;DHT22;62514;48.112;11.566;2024-01-11T15:45:57;-3.50;33.60